sensor_id;sensor_type;location;lat;lon;timestamp;temperature;humidity
22319;DHT22;11327;52.334;9.506;2022-10-16T00:02:20;13.90;99.90
22319;DHT22;11327;52.334;9.506;2022-10-16T00:05:42;13.90;99.90
22319;DHT22;11327;52.334;9.506;2022-10-16T00:09:04;13.90;99.90
22319;DHT22;11327;52.334;9.506;2022-10-16T00:12:25;13.80;99.90
22319;DHT22;11327;52.334;9.506;2022-10-16T00:15:46;13.80;99.90
22319;DHT22;11327;52.334;9.506;2022-10-16T00:19:07;13.70;99.90
22319;DHT22;11327;52.334;9.506;2022-10-16T00:22:29;13.70;99.90
22319;DHT22;11327;52.334;9.506;2022-10-16T00:25:57;13.70;99.90
22319;DHT22;11327;52.334;9.506;2022-10-16T00:29:19;13.70;99.90
22319;DHT22;11327;52.334;9.506;2022-10-16T00:32:40;13.70;99.90
22319;DHT22;11327;52.334;9.506;2022-10-16T00:36:02;13.70;99.90
22319;DHT22;11327;52.334;9.506;2022-10-16T00:39:24;13.60;99.90
22319;DHT22;11327;52.334;9.506;2022-10-16T00:42:45;13.60;99.90
22319;DHT22;11327;52.334;9.506;2022-10-16T00:49:36;13.70;99.90
22319;DHT22;11327;52.334;9.506;2022-10-16T00:52:58;13.70;99.90
22319;DHT22;11327;52.334;9.506;2022-10-16T00:56:20;13.80;99.90
22319;DHT22;11327;52.334;9.506;2022-10-16T00:59:42;13.80;99.90
22319;DHT22;11327;52.334;9.506;2022-10-16T01:03:21;13.80;99.90
22319;DHT22;11327;52.334;9.506;2022-10-16T01:13:40;13.80;99.90
22319;DHT22;11327;52.334;9.506;2022-10-16T01:17:11;13.70;99.90
22319;DHT22;11327;52.334;9.506;2022-10-16T01:20:49;13.70;99.90
22319;DHT22;11327;52.334;9.506;2022-10-16T01:24:15;13.70;99.90
22319;DHT22;11327;52.334;9.506;2022-10-16T01:27:35;13.80;99.90
22319;DHT22;11327;52.334;9.506;2022-10-16T01:30:59;13.80;99.90
22319;DHT22;11327;52.334;9.506;2022-10-16T01:34:37;14.00;99.90
22319;DHT22;11327;52.334;9.506;2022-10-16T01:41:46;13.90;99.90
22319;DHT22;11327;52.334;9.506;2022-10-16T01:45:06;13.80;99.90
22319;DHT22;11327;52.334;9.506;2022-10-16T01:48:29;13.70;99.90
22319;DHT22;11327;52.334;9.506;2022-10-16T01:51:54;13.70;99.90
22319;DHT22;11327;52.334;9.506;2022-10-16T01:55:25;13.70;99.90
22319;DHT22;11327;52.334;9.506;2022-10-16T01:58:50;13.70;99.90
22319;DHT22;11327;52.334;9.506;2022-10-16T02:02:12;13.60;99.90
22319;DHT22;11327;52.334;9.506;2022-10-16T02:05:44;13.60;99.90
22319;DHT22;11327;52.334;9.506;2022-10-16T02:09:02;13.60;99.90
22319;DHT22;11327;52.334;9.506;2022-10-16T02:12:28;13.50;99.90
22319;DHT22;11327;52.334;9.506;2022-10-16T02:15:50;13.50;99.90
22319;DHT22;11327;52.334;9.506;2022-10-16T02:19:13;13.50;99.90
22319;DHT22;11327;52.334;9.506;2022-10-16T02:22:41;13.50;99.90
22319;DHT22;11327;52.334;9.506;2022-10-16T02:26:05;13.50;99.90
22319;DHT22;11327;52.334;9.506;2022-10-16T02:29:27;13.40;99.90
22319;DHT22;11327;52.334;9.506;2022-10-16T02:32:49;13.40;99.90
22319;DHT22;11327;52.334;9.506;2022-10-16T02:36:10;13.40;99.90
22319;DHT22;11327;52.334;9.506;2022-10-16T02:39:32;13.40;99.90
22319;DHT22;11327;52.334;9.506;2022-10-16T02:42:55;13.40;99.90
22319;DHT22;11327;52.334;9.506;2022-10-16T02:46:17;13.40;99.90
22319;DHT22;11327;52.334;9.506;2022-10-16T02:49:39;13.40;99.90
22319;DHT22;11327;52.334;9.506;2022-10-16T02:53:00;13.40;99.90
22319;DHT22;11327;52.334;9.506;2022-10-16T02:56:21;13.40;99.90
22319;DHT22;11327;52.334;9.506;2022-10-16T02:59:42;13.30;99.90
22319;DHT22;11327;52.334;9.506;2022-10-16T03:03:03;13.40;99.90
22319;DHT22;11327;52.334;9.506;2022-10-16T03:06:24;13.40;99.90
22319;DHT22;11327;52.334;9.506;2022-10-16T03:09:45;13.40;99.90
22319;DHT22;11327;52.334;9.506;2022-10-16T03:13:06;13.40;99.90
22319;DHT22;11327;52.334;9.506;2022-10-16T03:16:27;13.40;99.90
22319;DHT22;11327;52.334;9.506;2022-10-16T03:19:48;13.50;99.90
22319;DHT22;11327;52.334;9.506;2022-10-16T03:23:09;13.50;99.90
22319;DHT22;11327;52.334;9.506;2022-10-16T03:26:30;13.50;99.90
22319;DHT22;11327;52.334;9.506;2022-10-16T03:29:51;13.50;99.90
22319;DHT22;11327;52.334;9.506;2022-10-16T03:33:12;13.60;99.90
22319;DHT22;11327;52.334;9.506;2022-10-16T03:36:33;13.50;99.90
22319;DHT22;11327;52.334;9.506;2022-10-16T03:39:55;13.50;99.90
22319;DHT22;11327;52.334;9.506;2022-10-16T03:43:16;13.50;99.90
22319;DHT22;11327;52.334;9.506;2022-10-16T03:46:37;13.60;99.90
22319;DHT22;11327;52.334;9.506;2022-10-16T03:49:57;13.60;99.90
22319;DHT22;11327;52.334;9.506;2022-10-16T03:53:18;13.50;99.90
22319;DHT22;11327;52.334;9.506;2022-10-16T03:56:39;13.50;99.90
22319;DHT22;11327;52.334;9.506;2022-10-16T04:00:00;13.50;99.90
22319;DHT22;11327;52.334;9.506;2022-10-16T04:03:21;13.50;99.90
22319;DHT22;11327;52.334;9.506;2022-10-16T04:06:43;13.40;99.90
22319;DHT22;11327;52.334;9.506;2022-10-16T04:10:05;13.40;99.90
22319;DHT22;11327;52.334;9.506;2022-10-16T04:13:26;13.30;99.90
22319;DHT22;11327;52.334;9.506;2022-10-16T04:16:47;13.30;99.90
22319;DHT22;11327;52.334;9.506;2022-10-16T04:20:08;13.30;99.90
22319;DHT22;11327;52.334;9.506;2022-10-16T04:23:29;13.30;99.90
22319;DHT22;11327;52.334;9.506;2022-10-16T04:26:50;13.20;99.90
22319;DHT22;11327;52.334;9.506;2022-10-16T04:30:11;13.30;99.90
22319;DHT22;11327;52.334;9.506;2022-10-16T04:33:33;13.20;99.90
22319;DHT22;11327;52.334;9.506;2022-10-16T04:36:54;13.20;99.90
22319;DHT22;11327;52.334;9.506;2022-10-16T04:40:15;13.20;99.90
22319;DHT22;11327;52.334;9.506;2022-10-16T04:43:36;13.20;99.90
22319;DHT22;11327;52.334;9.506;2022-10-16T04:46:57;13.20;99.90
22319;DHT22;11327;52.334;9.506;2022-10-16T04:50:18;13.20;99.90
22319;DHT22;11327;52.334;9.506;2022-10-16T04:53:39;13.20;99.90
22319;DHT22;11327;52.334;9.506;2022-10-16T04:56:59;13.10;99.90
22319;DHT22;11327;52.334;9.506;2022-10-16T05:00:20;13.10;99.90
22319;DHT22;11327;52.334;9.506;2022-10-16T05:03:42;13.10;99.90
22319;DHT22;11327;52.334;9.506;2022-10-16T05:07:03;13.00;99.90
22319;DHT22;11327;52.334;9.506;2022-10-16T05:10:24;13.00;99.90
22319;DHT22;11327;52.334;9.506;2022-10-16T05:13:45;13.00;99.90
22319;DHT22;11327;52.334;9.506;2022-10-16T05:17:06;13.00;99.90
22319;DHT22;11327;52.334;9.506;2022-10-16T05:20:27;13.00;99.90
22319;DHT22;11327;52.334;9.506;2022-10-16T05:23:49;13.00;99.90
22319;DHT22;11327;52.334;9.506;2022-10-16T05:27:10;13.00;99.90
22319;DHT22;11327;52.334;9.506;2022-10-16T05:30:31;13.00;99.90
22319;DHT22;11327;52.334;9.506;2022-10-16T05:33:58;13.00;99.90
22319;DHT22;11327;52.334;9.506;2022-10-16T05:37:19;13.00;99.90
22319;DHT22;11327;52.334;9.506;2022-10-16T05:40:40;13.00;99.90
22319;DHT22;11327;52.334;9.506;2022-10-16T05:44:05;13.00;99.90
22319;DHT22;11327;52.334;9.506;2022-10-16T05:47:26;13.10;99.90
22319;DHT22;11327;52.334;9.506;2022-10-16T05:50:47;13.10;99.90
22319;DHT22;11327;52.334;9.506;2022-10-16T05:54:09;13.20;99.90
22319;DHT22;11327;52.334;9.506;2022-10-16T05:57:30;13.20;99.90
22319;DHT22;11327;52.334;9.506;2022-10-16T06:00:58;13.10;99.90
22319;DHT22;11327;52.334;9.506;2022-10-16T06:04:20;13.20;99.90
22319;DHT22;11327;52.334;9.506;2022-10-16T06:07:41;13.20;99.90
22319;DHT22;11327;52.334;9.506;2022-10-16T06:11:03;13.20;99.90
22319;DHT22;11327;52.334;9.506;2022-10-16T06:14:25;13.20;99.90
22319;DHT22;11327;52.334;9.506;2022-10-16T06:17:46;13.10;99.90
22319;DHT22;11327;52.334;9.506;2022-10-16T06:21:16;13.20;99.90
22319;DHT22;11327;52.334;9.506;2022-10-16T06:24:37;13.20;99.90
22319;DHT22;11327;52.334;9.506;2022-10-16T06:27:58;13.20;99.90
22319;DHT22;11327;52.334;9.506;2022-10-16T06:31:19;13.30;99.90
22319;DHT22;11327;52.334;9.506;2022-10-16T06:34:40;13.20;99.90
22319;DHT22;11327;52.334;9.506;2022-10-16T06:38:01;13.30;99.90
22319;DHT22;11327;52.334;9.506;2022-10-16T06:41:23;13.30;99.90
22319;DHT22;11327;52.334;9.506;2022-10-16T06:44:44;13.30;99.90
22319;DHT22;11327;52.334;9.506;2022-10-16T06:48:05;13.30;99.90
22319;DHT22;11327;52.334;9.506;2022-10-16T06:51:26;13.30;99.90
22319;DHT22;11327;52.334;9.506;2022-10-16T06:54:47;13.30;99.90
22319;DHT22;11327;52.334;9.506;2022-10-16T06:58:08;13.30;99.90
22319;DHT22;11327;52.334;9.506;2022-10-16T07:01:29;13.40;99.90
22319;DHT22;11327;52.334;9.506;2022-10-16T07:04:50;13.50;99.90
22319;DHT22;11327;52.334;9.506;2022-10-16T07:08:11;13.60;99.90
22319;DHT22;11327;52.334;9.506;2022-10-16T07:11:33;13.60;99.90
22319;DHT22;11327;52.334;9.506;2022-10-16T07:14:54;13.70;99.90
22319;DHT22;11327;52.334;9.506;2022-10-16T07:18:16;13.70;99.90
22319;DHT22;11327;52.334;9.506;2022-10-16T07:21:37;13.70;99.90
22319;DHT22;11327;52.334;9.506;2022-10-16T07:24:58;13.80;99.90
22319;DHT22;11327;52.334;9.506;2022-10-16T07:28:19;13.80;99.90
22319;DHT22;11327;52.334;9.506;2022-10-16T07:31:41;13.90;99.90
22319;DHT22;11327;52.334;9.506;2022-10-16T07:35:02;13.90;99.90
22319;DHT22;11327;52.334;9.506;2022-10-16T07:38:23;14.20;99.90
22319;DHT22;11327;52.334;9.506;2022-10-16T07:41:44;14.50;99.90
22319;DHT22;11327;52.334;9.506;2022-10-16T07:45:06;14.80;99.90
22319;DHT22;11327;52.334;9.506;2022-10-16T07:48:29;15.00;99.90
22319;DHT22;11327;52.334;9.506;2022-10-16T07:51:50;15.10;99.90
22319;DHT22;11327;52.334;9.506;2022-10-16T07:55:11;15.20;99.90
22319;DHT22;11327;52.334;9.506;2022-10-16T07:58:33;15.30;99.90
22319;DHT22;11327;52.334;9.506;2022-10-16T08:01:54;15.40;99.90
22319;DHT22;11327;52.334;9.506;2022-10-16T08:05:15;15.50;99.90
22319;DHT22;11327;52.334;9.506;2022-10-16T08:08:36;15.50;99.90
22319;DHT22;11327;52.334;9.506;2022-10-16T08:11:57;15.70;99.90
22319;DHT22;11327;52.334;9.506;2022-10-16T08:15:18;15.60;99.90
22319;DHT22;11327;52.334;9.506;2022-10-16T08:18:40;15.60;99.90
22319;DHT22;11327;52.334;9.506;2022-10-16T08:22:01;15.60;99.90
22319;DHT22;11327;52.334;9.506;2022-10-16T08:25:23;15.60;99.90
22319;DHT22;11327;52.334;9.506;2022-10-16T08:28:44;15.60;99.90
22319;DHT22;11327;52.334;9.506;2022-10-16T08:32:05;15.70;99.90
22319;DHT22;11327;52.334;9.506;2022-10-16T08:35:26;15.60;99.90
22319;DHT22;11327;52.334;9.506;2022-10-16T08:38:49;15.70;99.90
22319;DHT22;11327;52.334;9.506;2022-10-16T08:49:24;15.70;99.90
22319;DHT22;11327;52.334;9.506;2022-10-16T08:52:45;15.80;99.90
22319;DHT22;11327;52.334;9.506;2022-10-16T08:56:06;15.90;99.90
22319;DHT22;11327;52.334;9.506;2022-10-16T08:59:27;16.10;99.90
22319;DHT22;11327;52.334;9.506;2022-10-16T09:03:04;16.20;99.90
22319;DHT22;11327;52.334;9.506;2022-10-16T09:21:25;16.50;99.90
22319;DHT22;11327;52.334;9.506;2022-10-16T09:24:46;16.70;99.90
22319;DHT22;11327;52.334;9.506;2022-10-16T09:28:07;16.80;99.90
22319;DHT22;11327;52.334;9.506;2022-10-16T09:31:29;16.80;99.90
22319;DHT22;11327;52.334;9.506;2022-10-16T09:34:52;16.90;99.90
22319;DHT22;11327;52.334;9.506;2022-10-16T09:41:50;17.00;99.90
22319;DHT22;11327;52.334;9.506;2022-10-16T09:45:20;17.10;99.90
22319;DHT22;11327;52.334;9.506;2022-10-16T09:48:50;17.30;99.90
22319;DHT22;11327;52.334;9.506;2022-10-16T09:52:14;17.40;99.90
22319;DHT22;11327;52.334;9.506;2022-10-16T09:55:35;17.60;99.90
22319;DHT22;11327;52.334;9.506;2022-10-16T09:58:58;17.70;99.90
22319;DHT22;11327;52.334;9.506;2022-10-16T10:02:31;17.80;99.90
22319;DHT22;11327;52.334;9.506;2022-10-16T10:05:52;18.00;99.90
22319;DHT22;11327;52.334;9.506;2022-10-16T10:12:47;18.30;99.90
22319;DHT22;11327;52.334;9.506;2022-10-16T10:16:08;18.50;99.90
22319;DHT22;11327;52.334;9.506;2022-10-16T10:19:29;18.60;99.90
22319;DHT22;11327;52.334;9.506;2022-10-16T10:22:50;18.70;99.90
22319;DHT22;11327;52.334;9.506;2022-10-16T10:26:17;18.70;99.90
22319;DHT22;11327;52.334;9.506;2022-10-16T10:36:44;18.90;99.90
22319;DHT22;11327;52.334;9.506;2022-10-16T11:06:22;19.30;99.90
22319;DHT22;11327;52.334;9.506;2022-10-16T11:09:51;19.40;99.90
22319;DHT22;11327;52.334;9.506;2022-10-16T11:16:54;19.30;99.90
22319;DHT22;11327;52.334;9.506;2022-10-16T11:20:24;19.10;99.90
22319;DHT22;11327;52.334;9.506;2022-10-16T11:23:56;18.80;99.90
22319;DHT22;11327;52.334;9.506;2022-10-16T11:27:25;18.80;99.90
22319;DHT22;11327;52.334;9.506;2022-10-16T11:34:42;18.90;99.90
22319;DHT22;11327;52.334;9.506;2022-10-16T11:38:07;18.90;99.90
22319;DHT22;11327;52.334;9.506;2022-10-16T11:41:32;19.10;99.90
22319;DHT22;11327;52.334;9.506;2022-10-16T11:45:07;19.00;99.90
22319;DHT22;11327;52.334;9.506;2022-10-16T11:48:30;18.90;99.90
22319;DHT22;11327;52.334;9.506;2022-10-16T11:51:57;18.90;99.90
22319;DHT22;11327;52.334;9.506;2022-10-16T11:55:39;18.80;99.90
22319;DHT22;11327;52.334;9.506;2022-10-16T11:59:06;18.20;99.90
22319;DHT22;11327;52.334;9.506;2022-10-16T12:09:41;19.40;99.90
22319;DHT22;11327;52.334;9.506;2022-10-16T12:13:25;19.40;99.90
22319;DHT22;11327;52.334;9.506;2022-10-16T12:16:25;19.40;99.90
22319;DHT22;11327;52.334;9.506;2022-10-16T12:23:22;19.50;99.90
22319;DHT22;11327;52.334;9.506;2022-10-16T12:26:45;19.60;99.90
22319;DHT22;11327;52.334;9.506;2022-10-16T12:30:07;19.50;99.90
22319;DHT22;11327;52.334;9.506;2022-10-16T12:33:41;19.60;99.90
22319;DHT22;11327;52.334;9.506;2022-10-16T12:37:27;19.60;99.90
22319;DHT22;11327;52.334;9.506;2022-10-16T12:40:54;19.60;99.90
22319;DHT22;11327;52.334;9.506;2022-10-16T12:44:22;19.70;99.90
22319;DHT22;11327;52.334;9.506;2022-10-16T12:47:52;19.70;99.90
22319;DHT22;11327;52.334;9.506;2022-10-16T12:54:57;19.90;99.90
22319;DHT22;11327;52.334;9.506;2022-10-16T12:58:38;20.00;99.90
22319;DHT22;11327;52.334;9.506;2022-10-16T13:02:18;20.10;99.90
22319;DHT22;11327;52.334;9.506;2022-10-16T13:09:28;20.00;99.90
22319;DHT22;11327;52.334;9.506;2022-10-16T13:30:22;19.80;99.90
22319;DHT22;11327;52.334;9.506;2022-10-16T13:33:46;19.70;99.90
22319;DHT22;11327;52.334;9.506;2022-10-16T13:37:21;19.60;99.90
22319;DHT22;11327;52.334;9.506;2022-10-16T13:44:22;19.70;99.90
22319;DHT22;11327;52.334;9.506;2022-10-16T13:47:43;19.80;99.90
22319;DHT22;11327;52.334;9.506;2022-10-16T13:51:15;19.80;99.90
22319;DHT22;11327;52.334;9.506;2022-10-16T13:54:37;19.70;99.90
22319;DHT22;11327;52.334;9.506;2022-10-16T13:58:08;19.70;99.90
22319;DHT22;11327;52.334;9.506;2022-10-16T14:01:43;19.70;99.90
22319;DHT22;11327;52.334;9.506;2022-10-16T14:05:08;19.70;99.90
22319;DHT22;11327;52.334;9.506;2022-10-16T14:08:30;19.60;99.90
22319;DHT22;11327;52.334;9.506;2022-10-16T14:12:09;19.60;99.90
22319;DHT22;11327;52.334;9.506;2022-10-16T14:15:33;19.60;99.90
22319;DHT22;11327;52.334;9.506;2022-10-16T14:19:00;19.60;99.90
22319;DHT22;11327;52.334;9.506;2022-10-16T14:22:32;19.50;99.90
22319;DHT22;11327;52.334;9.506;2022-10-16T14:25:53;19.50;99.90
22319;DHT22;11327;52.334;9.506;2022-10-16T14:29:19;19.50;99.90
22319;DHT22;11327;52.334;9.506;2022-10-16T14:32:41;19.50;99.90
22319;DHT22;11327;52.334;9.506;2022-10-16T14:36:14;19.50;99.90
22319;DHT22;11327;52.334;9.506;2022-10-16T14:39:35;19.50;99.90
22319;DHT22;11327;52.334;9.506;2022-10-16T14:42:57;19.40;99.90
22319;DHT22;11327;52.334;9.506;2022-10-16T14:46:31;19.40;99.90
22319;DHT22;11327;52.334;9.506;2022-10-16T14:49:53;19.40;99.90
22319;DHT22;11327;52.334;9.506;2022-10-16T14:53:19;19.30;99.90
22319;DHT22;11327;52.334;9.506;2022-10-16T14:56:52;19.30;99.90
22319;DHT22;11327;52.334;9.506;2022-10-16T15:00:17;19.40;99.90
22319;DHT22;11327;52.334;9.506;2022-10-16T15:03:39;19.30;99.90
22319;DHT22;11327;52.334;9.506;2022-10-16T15:06:59;19.30;99.90
22319;DHT22;11327;52.334;9.506;2022-10-16T15:10:23;19.30;99.90
22319;DHT22;11327;52.334;9.506;2022-10-16T15:13:45;19.20;99.90
22319;DHT22;11327;52.334;9.506;2022-10-16T15:17:09;19.20;99.90
22319;DHT22;11327;52.334;9.506;2022-10-16T15:20:34;19.20;99.90
22319;DHT22;11327;52.334;9.506;2022-10-16T15:23:55;19.10;99.90
22319;DHT22;11327;52.334;9.506;2022-10-16T15:27:17;19.10;99.90
22319;DHT22;11327;52.334;9.506;2022-10-16T15:30:38;19.00;99.90
22319;DHT22;11327;52.334;9.506;2022-10-16T15:33:59;19.00;99.90
22319;DHT22;11327;52.334;9.506;2022-10-16T15:37:22;18.80;99.90
22319;DHT22;11327;52.334;9.506;2022-10-16T15:40:43;18.70;99.90
22319;DHT22;11327;52.334;9.506;2022-10-16T15:44:04;18.50;99.90
22319;DHT22;11327;52.334;9.506;2022-10-16T15:47:25;18.40;99.90
22319;DHT22;11327;52.334;9.506;2022-10-16T15:50:46;18.20;99.90
22319;DHT22;11327;52.334;9.506;2022-10-16T15:54:08;18.10;99.90
22319;DHT22;11327;52.334;9.506;2022-10-16T15:57:29;18.00;99.90
22319;DHT22;11327;52.334;9.506;2022-10-16T16:00:57;17.90;99.90
22319;DHT22;11327;52.334;9.506;2022-10-16T16:04:18;17.80;99.90
22319;DHT22;11327;52.334;9.506;2022-10-16T16:07:39;17.60;99.90
22319;DHT22;11327;52.334;9.506;2022-10-16T16:11:06;17.60;99.90
22319;DHT22;11327;52.334;9.506;2022-10-16T16:14:28;17.40;99.90
22319;DHT22;11327;52.334;9.506;2022-10-16T16:17:49;17.30;99.90
22319;DHT22;11327;52.334;9.506;2022-10-16T16:21:11;17.20;99.90
22319;DHT22;11327;52.334;9.506;2022-10-16T16:24:33;17.00;99.90
22319;DHT22;11327;52.334;9.506;2022-10-16T16:27:54;16.90;99.90
22319;DHT22;11327;52.334;9.506;2022-10-16T16:31:14;16.80;99.90
22319;DHT22;11327;52.334;9.506;2022-10-16T16:34:36;16.70;99.90
22319;DHT22;11327;52.334;9.506;2022-10-16T16:37:57;16.50;99.90
22319;DHT22;11327;52.334;9.506;2022-10-16T16:41:21;16.50;99.90
22319;DHT22;11327;52.334;9.506;2022-10-16T16:44:42;16.40;99.90
22319;DHT22;11327;52.334;9.506;2022-10-16T16:48:03;16.20;99.90
22319;DHT22;11327;52.334;9.506;2022-10-16T16:51:26;16.10;99.90
22319;DHT22;11327;52.334;9.506;2022-10-16T16:54:47;16.00;99.90
22319;DHT22;11327;52.334;9.506;2022-10-16T16:58:10;15.90;99.90
22319;DHT22;11327;52.334;9.506;2022-10-16T17:01:31;15.90;99.90
22319;DHT22;11327;52.334;9.506;2022-10-16T17:04:52;15.90;99.90
22319;DHT22;11327;52.334;9.506;2022-10-16T17:08:13;15.80;99.90
22319;DHT22;11327;52.334;9.506;2022-10-16T17:11:34;15.80;99.90
22319;DHT22;11327;52.334;9.506;2022-10-16T17:14:55;15.80;99.90
22319;DHT22;11327;52.334;9.506;2022-10-16T17:18:16;15.80;99.90
22319;DHT22;11327;52.334;9.506;2022-10-16T17:21:38;15.70;99.90
22319;DHT22;11327;52.334;9.506;2022-10-16T17:24:59;15.70;99.90
22319;DHT22;11327;52.334;9.506;2022-10-16T17:28:20;15.60;99.90
22319;DHT22;11327;52.334;9.506;2022-10-16T17:31:41;15.60;99.90
22319;DHT22;11327;52.334;9.506;2022-10-16T17:35:02;15.60;99.90
22319;DHT22;11327;52.334;9.506;2022-10-16T17:38:23;15.60;99.90
22319;DHT22;11327;52.334;9.506;2022-10-16T17:41:45;15.50;99.90
22319;DHT22;11327;52.334;9.506;2022-10-16T17:45:07;15.40;99.90
22319;DHT22;11327;52.334;9.506;2022-10-16T17:48:28;15.30;99.90
22319;DHT22;11327;52.334;9.506;2022-10-16T17:51:51;15.30;99.90
22319;DHT22;11327;52.334;9.506;2022-10-16T17:55:12;15.30;99.90
22319;DHT22;11327;52.334;9.506;2022-10-16T17:58:33;15.30;99.90
22319;DHT22;11327;52.334;9.506;2022-10-16T18:01:54;15.30;99.90
22319;DHT22;11327;52.334;9.506;2022-10-16T18:05:15;15.30;99.90
22319;DHT22;11327;52.334;9.506;2022-10-16T18:08:36;15.20;99.90
22319;DHT22;11327;52.334;9.506;2022-10-16T18:11:57;15.20;99.90
22319;DHT22;11327;52.334;9.506;2022-10-16T18:15:21;15.20;99.90
22319;DHT22;11327;52.334;9.506;2022-10-16T18:18:42;15.10;99.90
22319;DHT22;11327;52.334;9.506;2022-10-16T18:22:07;15.10;99.90
22319;DHT22;11327;52.334;9.506;2022-10-16T18:25:28;15.00;99.90
22319;DHT22;11327;52.334;9.506;2022-10-16T18:28:54;15.00;99.90
22319;DHT22;11327;52.334;9.506;2022-10-16T18:32:16;15.00;99.90
22319;DHT22;11327;52.334;9.506;2022-10-16T18:35:37;15.00;99.90
22319;DHT22;11327;52.334;9.506;2022-10-16T18:38:59;14.90;99.90
22319;DHT22;11327;52.334;9.506;2022-10-16T18:42:20;14.90;99.90
22319;DHT22;11327;52.334;9.506;2022-10-16T18:45:41;14.90;99.90
22319;DHT22;11327;52.334;9.506;2022-10-16T18:49:02;14.80;99.90
22319;DHT22;11327;52.334;9.506;2022-10-16T18:52:24;14.80;99.90
22319;DHT22;11327;52.334;9.506;2022-10-16T18:55:52;14.70;99.90
22319;DHT22;11327;52.334;9.506;2022-10-16T18:59:13;14.70;99.90
22319;DHT22;11327;52.334;9.506;2022-10-16T19:02:34;14.60;99.90
22319;DHT22;11327;52.334;9.506;2022-10-16T19:06:06;14.60;99.90
22319;DHT22;11327;52.334;9.506;2022-10-16T19:09:23;14.50;99.90
22319;DHT22;11327;52.334;9.506;2022-10-16T19:12:45;14.50;99.90
22319;DHT22;11327;52.334;9.506;2022-10-16T19:16:11;14.50;99.90
22319;DHT22;11327;52.334;9.506;2022-10-16T19:19:33;14.50;99.90
22319;DHT22;11327;52.334;9.506;2022-10-16T19:22:54;14.50;99.90
22319;DHT22;11327;52.334;9.506;2022-10-16T19:26:18;14.50;99.90
22319;DHT22;11327;52.334;9.506;2022-10-16T19:29:39;14.50;99.90
22319;DHT22;11327;52.334;9.506;2022-10-16T19:33:00;14.50;99.90
22319;DHT22;11327;52.334;9.506;2022-10-16T19:36:23;14.50;99.90
22319;DHT22;11327;52.334;9.506;2022-10-16T19:39:44;14.40;99.90
22319;DHT22;11327;52.334;9.506;2022-10-16T19:43:05;14.40;99.90
22319;DHT22;11327;52.334;9.506;2022-10-16T19:46:26;14.40;99.90
22319;DHT22;11327;52.334;9.506;2022-10-16T19:49:48;14.40;99.90
22319;DHT22;11327;52.334;9.506;2022-10-16T19:53:09;14.30;99.90
22319;DHT22;11327;52.334;9.506;2022-10-16T19:56:31;14.40;99.90
22319;DHT22;11327;52.334;9.506;2022-10-16T19:59:53;14.30;99.90
22319;DHT22;11327;52.334;9.506;2022-10-16T20:03:14;14.30;99.90
22319;DHT22;11327;52.334;9.506;2022-10-16T20:06:35;14.30;99.90
22319;DHT22;11327;52.334;9.506;2022-10-16T20:09:56;14.30;99.90
22319;DHT22;11327;52.334;9.506;2022-10-16T20:13:18;14.30;99.90
22319;DHT22;11327;52.334;9.506;2022-10-16T20:16:39;14.30;99.90
22319;DHT22;11327;52.334;9.506;2022-10-16T20:20:00;14.20;99.90
22319;DHT22;11327;52.334;9.506;2022-10-16T20:23:21;14.30;99.90
22319;DHT22;11327;52.334;9.506;2022-10-16T20:26:44;14.30;99.90
22319;DHT22;11327;52.334;9.506;2022-10-16T20:30:05;14.30;99.90
22319;DHT22;11327;52.334;9.506;2022-10-16T20:33:26;14.30;99.90
22319;DHT22;11327;52.334;9.506;2022-10-16T20:36:47;14.30;99.90
22319;DHT22;11327;52.334;9.506;2022-10-16T20:40:11;14.20;99.90
22319;DHT22;11327;52.334;9.506;2022-10-16T20:43:32;14.20;99.90
22319;DHT22;11327;52.334;9.506;2022-10-16T20:46:54;14.20;99.90
22319;DHT22;11327;52.334;9.506;2022-10-16T20:50:15;14.20;99.90
22319;DHT22;11327;52.334;9.506;2022-10-16T20:53:37;14.20;99.90
22319;DHT22;11327;52.334;9.506;2022-10-16T20:56:58;14.20;99.90
22319;DHT22;11327;52.334;9.506;2022-10-16T21:00:20;14.20;99.90
22319;DHT22;11327;52.334;9.506;2022-10-16T21:03:41;14.20;99.90
22319;DHT22;11327;52.334;9.506;2022-10-16T21:07:03;14.20;99.90
22319;DHT22;11327;52.334;9.506;2022-10-16T21:10:24;14.20;99.90
22319;DHT22;11327;52.334;9.506;2022-10-16T21:13:45;14.20;99.90
22319;DHT22;11327;52.334;9.506;2022-10-16T21:17:06;14.10;99.90
22319;DHT22;11327;52.334;9.506;2022-10-16T21:20:28;14.10;99.90
22319;DHT22;11327;52.334;9.506;2022-10-16T21:23:49;14.10;99.90
22319;DHT22;11327;52.334;9.506;2022-10-16T21:27:11;14.10;99.90
22319;DHT22;11327;52.334;9.506;2022-10-16T21:30:32;14.20;99.90
22319;DHT22;11327;52.334;9.506;2022-10-16T21:33:53;14.20;99.90
22319;DHT22;11327;52.334;9.506;2022-10-16T21:37:15;14.20;99.90
22319;DHT22;11327;52.334;9.506;2022-10-16T21:40:36;14.10;99.90
22319;DHT22;11327;52.334;9.506;2022-10-16T21:43:57;14.20;99.90
22319;DHT22;11327;52.334;9.506;2022-10-16T21:47:19;14.20;99.90
22319;DHT22;11327;52.334;9.506;2022-10-16T21:50:46;14.30;99.90
22319;DHT22;11327;52.334;9.506;2022-10-16T21:54:06;14.30;99.90
22319;DHT22;11327;52.334;9.506;2022-10-16T21:57:27;14.30;99.90
22319;DHT22;11327;52.334;9.506;2022-10-16T22:00:47;14.30;99.90
22319;DHT22;11327;52.334;9.506;2022-10-16T22:04:13;14.30;99.90
22319;DHT22;11327;52.334;9.506;2022-10-16T22:07:34;14.30;99.90
22319;DHT22;11327;52.334;9.506;2022-10-16T22:11:12;14.30;99.90
22319;DHT22;11327;52.334;9.506;2022-10-16T22:14:29;14.30;99.90
22319;DHT22;11327;52.334;9.506;2022-10-16T22:17:50;14.30;99.90
22319;DHT22;11327;52.334;9.506;2022-10-16T22:21:11;14.40;99.90
22319;DHT22;11327;52.334;9.506;2022-10-16T22:24:32;14.40;99.90
22319;DHT22;11327;52.334;9.506;2022-10-16T22:27:53;14.40;99.90
22319;DHT22;11327;52.334;9.506;2022-10-16T22:31:14;14.40;99.90
22319;DHT22;11327;52.334;9.506;2022-10-16T22:34:35;14.50;99.90
22319;DHT22;11327;52.334;9.506;2022-10-16T22:37:56;14.40;99.90
22319;DHT22;11327;52.334;9.506;2022-10-16T22:41:17;14.50;99.90
22319;DHT22;11327;52.334;9.506;2022-10-16T22:44:38;14.50;99.90
22319;DHT22;11327;52.334;9.506;2022-10-16T22:47:59;14.40;99.90
22319;DHT22;11327;52.334;9.506;2022-10-16T22:51:21;14.40;99.90
22319;DHT22;11327;52.334;9.506;2022-10-16T22:54:42;14.40;99.90
22319;DHT22;11327;52.334;9.506;2022-10-16T22:58:03;14.40;99.90
22319;DHT22;11327;52.334;9.506;2022-10-16T23:01:27;14.40;99.90
22319;DHT22;11327;52.334;9.506;2022-10-16T23:04:49;14.40;99.90
22319;DHT22;11327;52.334;9.506;2022-10-16T23:08:10;14.40;99.90
22319;DHT22;11327;52.334;9.506;2022-10-16T23:11:32;14.40;99.90
22319;DHT22;11327;52.334;9.506;2022-10-16T23:14:52;14.40;99.90
22319;DHT22;11327;52.334;9.506;2022-10-16T23:18:13;14.40;99.90
22319;DHT22;11327;52.334;9.506;2022-10-16T23:21:34;14.30;99.90
22319;DHT22;11327;52.334;9.506;2022-10-16T23:24:55;14.30;99.90